sensor_id;sensor_type;location;lat;lon;timestamp;P1;durP1;ratioP1;P2;durP2;ratioP2
68744;SDS011;66104;45.456;11.064;2023-04-12T00:02:02;16.30;;;10.70;;
68744;SDS011;66104;45.456;11.064;2023-04-12T00:04:38;16.80;;;10.50;;
68744;SDS011;66104;45.456;11.064;2023-04-12T00:07:14;15.90;;;9.50;;
68744;SDS011;66104;45.456;11.064;2023-04-12T00:09:51;14.30;;;9.30;;
68744;SDS011;66104;45.456;11.064;2023-04-12T00:12:27;12.50;;;8.00;;
68744;SDS011;66104;45.456;11.064;2023-04-12T00:15:08;15.00;;;9.10;;
68744;SDS011;66104;45.456;11.064;2023-04-12T00:17:45;19.80;;;10.90;;
68744;SDS011;66104;45.456;11.064;2023-04-12T00:20:22;14.90;;;9.60;;
68744;SDS011;66104;45.456;11.064;2023-04-12T00:23:00;16.70;;;9.70;;
68744;SDS011;66104;45.456;11.064;2023-04-12T00:25:36;17.50;;;10.80;;
68744;SDS011;66104;45.456;11.064;2023-04-12T00:28:12;17.10;;;9.30;;
68744;SDS011;66104;45.456;11.064;2023-04-12T00:30:49;18.40;;;11.30;;
68744;SDS011;66104;45.456;11.064;2023-04-12T00:33:25;17.40;;;10.10;;
68744;SDS011;66104;45.456;11.064;2023-04-12T00:36:01;16.20;;;10.60;;
68744;SDS011;66104;45.456;11.064;2023-04-12T00:38:39;15.30;;;10.40;;
68744;SDS011;66104;45.456;11.064;2023-04-12T00:41:16;19.30;;;12.70;;
68744;SDS011;66104;45.456;11.064;2023-04-12T00:43:52;15.50;;;10.10;;
68744;SDS011;66104;45.456;11.064;2023-04-12T00:46:29;15.80;;;10.50;;
68744;SDS011;66104;45.456;11.064;2023-04-12T00:49:06;17.20;;;11.10;;
68744;SDS011;66104;45.456;11.064;2023-04-12T00:51:45;19.10;;;11.30;;
68744;SDS011;66104;45.456;11.064;2023-04-12T00:54:21;18.20;;;11.00;;
68744;SDS011;66104;45.456;11.064;2023-04-12T00:56:57;19.30;;;11.60;;
68744;SDS011;66104;45.456;11.064;2023-04-12T00:59:35;16.80;;;11.20;;
68744;SDS011;66104;45.456;11.064;2023-04-12T01:02:15;18.30;;;10.70;;
68744;SDS011;66104;45.456;11.064;2023-04-12T01:04:52;13.70;;;8.80;;
68744;SDS011;66104;45.456;11.064;2023-04-12T01:07:39;20.10;;;11.80;;
68744;SDS011;66104;45.456;11.064;2023-04-12T01:10:35;15.80;;;10.60;;
68744;SDS011;66104;45.456;11.064;2023-04-12T01:13:27;17.40;;;10.90;;
68744;SDS011;66104;45.456;11.064;2023-04-12T01:16:11;16.70;;;10.80;;
68744;SDS011;66104;45.456;11.064;2023-04-12T01:19:01;15.30;;;9.70;;
68744;SDS011;66104;45.456;11.064;2023-04-12T01:22:05;14.40;;;10.00;;
68744;SDS011;66104;45.456;11.064;2023-04-12T01:25:08;17.40;;;10.50;;
68744;SDS011;66104;45.456;11.064;2023-04-12T01:28:01;17.30;;;10.20;;
68744;SDS011;66104;45.456;11.064;2023-04-12T01:30:38;17.90;;;10.90;;
68744;SDS011;66104;45.456;11.064;2023-04-12T01:33:18;17.10;;;11.50;;
68744;SDS011;66104;45.456;11.064;2023-04-12T01:36:07;18.00;;;9.80;;
68744;SDS011;66104;45.456;11.064;2023-04-12T01:38:47;15.50;;;10.50;;
68744;SDS011;66104;45.456;11.064;2023-04-12T01:41:25;14.60;;;9.70;;
68744;SDS011;66104;45.456;11.064;2023-04-12T01:44:03;16.20;;;9.30;;
68744;SDS011;66104;45.456;11.064;2023-04-12T01:46:40;14.80;;;9.60;;
68744;SDS011;66104;45.456;11.064;2023-04-12T01:49:19;18.10;;;9.90;;
68744;SDS011;66104;45.456;11.064;2023-04-12T01:52:02;14.30;;;9.10;;
68744;SDS011;66104;45.456;11.064;2023-04-12T01:54:50;15.10;;;9.40;;
68744;SDS011;66104;45.456;11.064;2023-04-12T01:57:30;17.00;;;10.60;;
68744;SDS011;66104;45.456;11.064;2023-04-12T02:00:15;15.50;;;10.60;;
68744;SDS011;66104;45.456;11.064;2023-04-12T02:02:55;17.20;;;10.90;;
68744;SDS011;66104;45.456;11.064;2023-04-12T02:05:32;15.80;;;10.30;;
68744;SDS011;66104;45.456;11.064;2023-04-12T02:08:09;14.10;;;8.90;;
68744;SDS011;66104;45.456;11.064;2023-04-12T02:10:47;15.90;;;10.30;;
68744;SDS011;66104;45.456;11.064;2023-04-12T02:13:24;16.80;;;10.90;;
68744;SDS011;66104;45.456;11.064;2023-04-12T02:16:00;16.10;;;10.60;;
68744;SDS011;66104;45.456;11.064;2023-04-12T02:18:38;17.50;;;10.50;;
68744;SDS011;66104;45.456;11.064;2023-04-12T02:21:17;16.00;;;10.10;;
68744;SDS011;66104;45.456;11.064;2023-04-12T02:23:53;20.30;;;9.20;;
68744;SDS011;66104;45.456;11.064;2023-04-12T02:26:29;15.60;;;10.40;;
68744;SDS011;66104;45.456;11.064;2023-04-12T02:29:07;16.30;;;10.90;;
68744;SDS011;66104;45.456;11.064;2023-04-12T02:31:43;16.20;;;10.50;;
68744;SDS011;66104;45.456;11.064;2023-04-12T02:34:20;16.20;;;10.80;;
68744;SDS011;66104;45.456;11.064;2023-04-12T02:37:03;18.20;;;10.90;;
68744;SDS011;66104;45.456;11.064;2023-04-12T02:39:41;18.60;;;11.30;;
68744;SDS011;66104;45.456;11.064;2023-04-12T02:42:17;13.80;;;9.30;;
68744;SDS011;66104;45.456;11.064;2023-04-12T02:44:54;17.50;;;11.70;;
68744;SDS011;66104;45.456;11.064;2023-04-12T02:47:31;16.30;;;10.90;;
68744;SDS011;66104;45.456;11.064;2023-04-12T02:50:11;18.40;;;12.30;;
68744;SDS011;66104;45.456;11.064;2023-04-12T02:53:02;16.90;;;10.80;;
68744;SDS011;66104;45.456;11.064;2023-04-12T02:55:39;18.10;;;11.80;;
68744;SDS011;66104;45.456;11.064;2023-04-12T02:58:15;18.90;;;12.10;;
68744;SDS011;66104;45.456;11.064;2023-04-12T03:00:52;20.90;;;11.90;;
68744;SDS011;66104;45.456;11.064;2023-04-12T03:03:33;16.30;;;10.70;;
68744;SDS011;66104;45.456;11.064;2023-04-12T03:06:24;17.30;;;11.40;;
68744;SDS011;66104;45.456;11.064;2023-04-12T03:09:03;18.10;;;11.80;;
68744;SDS011;66104;45.456;11.064;2023-04-12T03:11:39;18.50;;;12.40;;
68744;SDS011;66104;45.456;11.064;2023-04-12T03:14:16;13.60;;;10.00;;
68744;SDS011;66104;45.456;11.064;2023-04-12T03:16:52;18.30;;;12.10;;
68744;SDS011;66104;45.456;11.064;2023-04-12T03:19:28;17.70;;;12.10;;
68744;SDS011;66104;45.456;11.064;2023-04-12T03:22:05;18.70;;;11.10;;
68744;SDS011;66104;45.456;11.064;2023-04-12T03:24:43;18.60;;;12.30;;
68744;SDS011;66104;45.456;11.064;2023-04-12T03:27:23;18.00;;;12.30;;
68744;SDS011;66104;45.456;11.064;2023-04-12T03:29:59;17.90;;;11.50;;
68744;SDS011;66104;45.456;11.064;2023-04-12T03:32:38;20.40;;;12.20;;
68744;SDS011;66104;45.456;11.064;2023-04-12T03:35:14;17.20;;;11.70;;
68744;SDS011;66104;45.456;11.064;2023-04-12T03:37:51;18.50;;;11.90;;
68744;SDS011;66104;45.456;11.064;2023-04-12T03:40:29;18.40;;;10.90;;
68744;SDS011;66104;45.456;11.064;2023-04-12T03:43:05;18.60;;;11.70;;
68744;SDS011;66104;45.456;11.064;2023-04-12T03:45:41;17.10;;;11.40;;
68744;SDS011;66104;45.456;11.064;2023-04-12T03:48:18;18.60;;;11.60;;
68744;SDS011;66104;45.456;11.064;2023-04-12T03:50:54;18.00;;;11.70;;
68744;SDS011;66104;45.456;11.064;2023-04-12T03:53:41;16.50;;;10.90;;
68744;SDS011;66104;45.456;11.064;2023-04-12T03:56:19;17.10;;;10.90;;
68744;SDS011;66104;45.456;11.064;2023-04-12T03:58:56;17.00;;;11.00;;
68744;SDS011;66104;45.456;11.064;2023-04-12T04:01:34;17.90;;;10.80;;
68744;SDS011;66104;45.456;11.064;2023-04-12T04:04:10;14.80;;;10.70;;
68744;SDS011;66104;45.456;11.064;2023-04-12T04:06:47;16.50;;;10.90;;
68744;SDS011;66104;45.456;11.064;2023-04-12T04:09:23;18.50;;;11.30;;
68744;SDS011;66104;45.456;11.064;2023-04-12T04:12:00;17.50;;;11.30;;
68744;SDS011;66104;45.456;11.064;2023-04-12T04:14:37;17.10;;;11.20;;
68744;SDS011;66104;45.456;11.064;2023-04-12T04:17:15;17.10;;;10.70;;
68744;SDS011;66104;45.456;11.064;2023-04-12T04:19:51;18.40;;;10.90;;
68744;SDS011;66104;45.456;11.064;2023-04-12T04:22:28;17.50;;;11.80;;
68744;SDS011;66104;45.456;11.064;2023-04-12T04:25:07;17.20;;;11.20;;
68744;SDS011;66104;45.456;11.064;2023-04-12T04:27:46;18.70;;;11.60;;
68744;SDS011;66104;45.456;11.064;2023-04-12T04:30:23;19.40;;;11.80;;
68744;SDS011;66104;45.456;11.064;2023-04-12T04:32:59;17.60;;;11.70;;
68744;SDS011;66104;45.456;11.064;2023-04-12T04:35:39;19.50;;;11.60;;
68744;SDS011;66104;45.456;11.064;2023-04-12T04:38:25;17.20;;;10.70;;
68744;SDS011;66104;45.456;11.064;2023-04-12T04:41:10;17.40;;;11.60;;
68744;SDS011;66104;45.456;11.064;2023-04-12T04:43:54;20.50;;;11.80;;
68744;SDS011;66104;45.456;11.064;2023-04-12T04:46:32;22.40;;;11.90;;
68744;SDS011;66104;45.456;11.064;2023-04-12T04:49:09;19.90;;;11.40;;
68744;SDS011;66104;45.456;11.064;2023-04-12T04:51:46;19.10;;;12.10;;
68744;SDS011;66104;45.456;11.064;2023-04-12T04:54:26;22.80;;;12.80;;
68744;SDS011;66104;45.456;11.064;2023-04-12T04:57:03;19.20;;;12.90;;
68744;SDS011;66104;45.456;11.064;2023-04-12T04:59:43;18.50;;;11.20;;
68744;SDS011;66104;45.456;11.064;2023-04-12T05:02:20;22.60;;;11.90;;
68744;SDS011;66104;45.456;11.064;2023-04-12T05:04:56;17.10;;;12.00;;
68744;SDS011;66104;45.456;11.064;2023-04-12T05:07:35;19.80;;;11.60;;
68744;SDS011;66104;45.456;11.064;2023-04-12T05:10:13;22.70;;;12.40;;
68744;SDS011;66104;45.456;11.064;2023-04-12T05:12:50;20.50;;;12.00;;
68744;SDS011;66104;45.456;11.064;2023-04-12T05:15:28;17.90;;;11.50;;
68744;SDS011;66104;45.456;11.064;2023-04-12T05:18:04;21.60;;;12.40;;
68744;SDS011;66104;45.456;11.064;2023-04-12T05:20:41;19.30;;;11.60;;
68744;SDS011;66104;45.456;11.064;2023-04-12T05:23:19;17.80;;;11.30;;
68744;SDS011;66104;45.456;11.064;2023-04-12T05:25:56;18.80;;;12.00;;
68744;SDS011;66104;45.456;11.064;2023-04-12T05:28:33;19.30;;;12.40;;
68744;SDS011;66104;45.456;11.064;2023-04-12T05:31:11;21.90;;;12.70;;
68744;SDS011;66104;45.456;11.064;2023-04-12T05:33:48;20.50;;;13.40;;
68744;SDS011;66104;45.456;11.064;2023-04-12T05:36:29;18.10;;;12.50;;
68744;SDS011;66104;45.456;11.064;2023-04-12T05:39:06;17.00;;;11.20;;
68744;SDS011;66104;45.456;11.064;2023-04-12T05:41:43;20.20;;;13.60;;
68744;SDS011;66104;45.456;11.064;2023-04-12T05:44:19;22.10;;;14.50;;
68744;SDS011;66104;45.456;11.064;2023-04-12T05:46:54;22.60;;;14.40;;
68744;SDS011;66104;45.456;11.064;2023-04-12T05:49:32;21.90;;;13.50;;
68744;SDS011;66104;45.456;11.064;2023-04-12T05:52:11;20.80;;;12.50;;
68744;SDS011;66104;45.456;11.064;2023-04-12T05:54:47;20.60;;;11.20;;
68744;SDS011;66104;45.456;11.064;2023-04-12T05:57:25;19.40;;;12.60;;
68744;SDS011;66104;45.456;11.064;2023-04-12T06:00:01;20.50;;;12.40;;
68744;SDS011;66104;45.456;11.064;2023-04-12T06:02:44;17.30;;;10.70;;
68744;SDS011;66104;45.456;11.064;2023-04-12T06:05:21;20.60;;;12.70;;
68744;SDS011;66104;45.456;11.064;2023-04-12T06:07:58;18.80;;;11.10;;
68744;SDS011;66104;45.456;11.064;2023-04-12T06:10:36;17.90;;;11.60;;
68744;SDS011;66104;45.456;11.064;2023-04-12T06:13:12;15.00;;;9.60;;
68744;SDS011;66104;45.456;11.064;2023-04-12T06:15:48;15.00;;;9.70;;
68744;SDS011;66104;45.456;11.064;2023-04-12T06:18:27;15.40;;;9.50;;
68744;SDS011;66104;45.456;11.064;2023-04-12T06:21:03;13.70;;;8.60;;
68744;SDS011;66104;45.456;11.064;2023-04-12T06:23:42;12.30;;;8.20;;
68744;SDS011;66104;45.456;11.064;2023-04-12T06:26:18;13.70;;;7.90;;
68744;SDS011;66104;45.456;11.064;2023-04-12T06:28:54;17.50;;;10.30;;
68744;SDS011;66104;45.456;11.064;2023-04-12T06:31:31;14.70;;;9.40;;
68744;SDS011;66104;45.456;11.064;2023-04-12T06:34:07;16.60;;;9.80;;
68744;SDS011;66104;45.456;11.064;2023-04-12T06:36:44;12.80;;;8.40;;
68744;SDS011;66104;45.456;11.064;2023-04-12T06:39:21;15.80;;;9.80;;
68744;SDS011;66104;45.456;11.064;2023-04-12T06:41:58;14.10;;;8.40;;
68744;SDS011;66104;45.456;11.064;2023-04-12T06:44:34;14.10;;;8.70;;
68744;SDS011;66104;45.456;11.064;2023-04-12T06:47:11;15.90;;;8.70;;
68744;SDS011;66104;45.456;11.064;2023-04-12T06:49:48;14.10;;;9.20;;
68744;SDS011;66104;45.456;11.064;2023-04-12T06:52:26;13.90;;;8.30;;
68744;SDS011;66104;45.456;11.064;2023-04-12T06:55:04;13.20;;;8.30;;
68744;SDS011;66104;45.456;11.064;2023-04-12T06:57:44;12.80;;;8.70;;
68744;SDS011;66104;45.456;11.064;2023-04-12T07:00:25;16.90;;;9.80;;
68744;SDS011;66104;45.456;11.064;2023-04-12T07:03:03;14.70;;;8.90;;
68744;SDS011;66104;45.456;11.064;2023-04-12T07:05:41;14.60;;;8.70;;
68744;SDS011;66104;45.456;11.064;2023-04-12T07:08:18;13.10;;;8.20;;
68744;SDS011;66104;45.456;11.064;2023-04-12T07:10:56;14.60;;;9.10;;
68744;SDS011;66104;45.456;11.064;2023-04-12T07:13:50;12.80;;;7.70;;
68744;SDS011;66104;45.456;11.064;2023-04-12T07:16:26;14.90;;;9.30;;
68744;SDS011;66104;45.456;11.064;2023-04-12T07:19:03;12.60;;;7.30;;
68744;SDS011;66104;45.456;11.064;2023-04-12T07:21:40;13.30;;;8.30;;
68744;SDS011;66104;45.456;11.064;2023-04-12T07:24:17;16.80;;;8.80;;
68744;SDS011;66104;45.456;11.064;2023-04-12T07:26:55;16.10;;;9.70;;
68744;SDS011;66104;45.456;11.064;2023-04-12T07:29:32;17.60;;;10.10;;
68744;SDS011;66104;45.456;11.064;2023-04-12T07:32:10;14.90;;;8.70;;
68744;SDS011;66104;45.456;11.064;2023-04-12T07:34:47;14.70;;;9.50;;
68744;SDS011;66104;45.456;11.064;2023-04-12T07:37:24;16.60;;;9.30;;
68744;SDS011;66104;45.456;11.064;2023-04-12T07:40:02;15.90;;;8.90;;
68744;SDS011;66104;45.456;11.064;2023-04-12T07:42:42;13.70;;;9.20;;
68744;SDS011;66104;45.456;11.064;2023-04-12T07:45:19;18.20;;;10.10;;
68744;SDS011;66104;45.456;11.064;2023-04-12T07:47:56;15.80;;;9.80;;
68744;SDS011;66104;45.456;11.064;2023-04-12T07:50:32;13.50;;;8.90;;
68744;SDS011;66104;45.456;11.064;2023-04-12T07:53:24;14.80;;;9.50;;
68744;SDS011;66104;45.456;11.064;2023-04-12T07:56:01;15.60;;;8.60;;
68744;SDS011;66104;45.456;11.064;2023-04-12T07:58:39;14.90;;;9.10;;
68744;SDS011;66104;45.456;11.064;2023-04-12T08:01:16;13.40;;;8.20;;
68744;SDS011;66104;45.456;11.064;2023-04-12T08:03:52;15.20;;;8.90;;
68744;SDS011;66104;45.456;11.064;2023-04-12T08:06:28;15.40;;;9.10;;
68744;SDS011;66104;45.456;11.064;2023-04-12T08:09:06;11.80;;;7.50;;
68744;SDS011;66104;45.456;11.064;2023-04-12T08:11:42;12.50;;;8.10;;
68744;SDS011;66104;45.456;11.064;2023-04-12T08:14:19;13.20;;;8.00;;
68744;SDS011;66104;45.456;11.064;2023-04-12T08:16:56;10.50;;;7.00;;
68744;SDS011;66104;45.456;11.064;2023-04-12T08:19:33;12.80;;;7.90;;
68744;SDS011;66104;45.456;11.064;2023-04-12T08:22:09;12.30;;;7.20;;
68744;SDS011;66104;45.456;11.064;2023-04-12T08:24:45;11.20;;;7.30;;
68744;SDS011;66104;45.456;11.064;2023-04-12T08:27:22;11.80;;;7.20;;
68744;SDS011;66104;45.456;11.064;2023-04-12T08:29:59;14.00;;;6.90;;
68744;SDS011;66104;45.456;11.064;2023-04-12T08:32:36;11.40;;;7.00;;
68744;SDS011;66104;45.456;11.064;2023-04-12T08:35:13;11.90;;;7.10;;
68744;SDS011;66104;45.456;11.064;2023-04-12T08:37:49;9.30;;;6.10;;
68744;SDS011;66104;45.456;11.064;2023-04-12T08:40:26;10.10;;;6.50;;
68744;SDS011;66104;45.456;11.064;2023-04-12T08:43:04;12.40;;;7.00;;
68744;SDS011;66104;45.456;11.064;2023-04-12T08:45:44;12.30;;;7.00;;
68744;SDS011;66104;45.456;11.064;2023-04-12T08:48:21;12.20;;;6.40;;
68744;SDS011;66104;45.456;11.064;2023-04-12T08:51:01;11.00;;;6.80;;
68744;SDS011;66104;45.456;11.064;2023-04-12T08:53:40;11.60;;;6.00;;
68744;SDS011;66104;45.456;11.064;2023-04-12T08:56:17;9.90;;;6.60;;
68744;SDS011;66104;45.456;11.064;2023-04-12T08:58:55;11.60;;;6.70;;
68744;SDS011;66104;45.456;11.064;2023-04-12T09:01:34;12.90;;;7.30;;
68744;SDS011;66104;45.456;11.064;2023-04-12T09:04:14;10.70;;;6.70;;
68744;SDS011;66104;45.456;11.064;2023-04-12T09:06:50;9.70;;;6.40;;
68744;SDS011;66104;45.456;11.064;2023-04-12T09:12:30;12.60;;;6.80;;
68744;SDS011;66104;45.456;11.064;2023-04-12T09:15:11;10.70;;;6.70;;
68744;SDS011;66104;45.456;11.064;2023-04-12T09:17:48;11.70;;;6.40;;
68744;SDS011;66104;45.456;11.064;2023-04-12T09:20:38;11.30;;;7.30;;
68744;SDS011;66104;45.456;11.064;2023-04-12T09:23:22;9.10;;;5.70;;
68744;SDS011;66104;45.456;11.064;2023-04-12T09:25:58;10.20;;;5.90;;
68744;SDS011;66104;45.456;11.064;2023-04-12T09:28:35;12.20;;;6.40;;
68744;SDS011;66104;45.456;11.064;2023-04-12T09:31:18;11.10;;;5.90;;
68744;SDS011;66104;45.456;11.064;2023-04-12T09:34:06;9.80;;;6.20;;
68744;SDS011;66104;45.456;11.064;2023-04-12T09:36:43;9.50;;;5.60;;
68744;SDS011;66104;45.456;11.064;2023-04-12T09:39:19;9.30;;;5.30;;
68744;SDS011;66104;45.456;11.064;2023-04-12T09:42:09;8.80;;;5.50;;
68744;SDS011;66104;45.456;11.064;2023-04-12T09:45:22;10.30;;;6.10;;
68744;SDS011;66104;45.456;11.064;2023-04-12T09:47:59;9.70;;;5.60;;
68744;SDS011;66104;45.456;11.064;2023-04-12T09:50:36;9.60;;;5.50;;
68744;SDS011;66104;45.456;11.064;2023-04-12T09:53:16;12.30;;;5.50;;
68744;SDS011;66104;45.456;11.064;2023-04-12T09:55:53;8.80;;;5.70;;
68744;SDS011;66104;45.456;11.064;2023-04-12T09:58:32;10.00;;;6.20;;
68744;SDS011;66104;45.456;11.064;2023-04-12T10:01:10;10.50;;;5.10;;
68744;SDS011;66104;45.456;11.064;2023-04-12T10:03:47;8.50;;;4.90;;
68744;SDS011;66104;45.456;11.064;2023-04-12T10:06:25;11.50;;;6.60;;
68744;SDS011;66104;45.456;11.064;2023-04-12T10:09:04;9.20;;;5.50;;
68744;SDS011;66104;45.456;11.064;2023-04-12T10:11:41;10.70;;;6.30;;
68744;SDS011;66104;45.456;11.064;2023-04-12T10:14:21;11.90;;;5.80;;
68744;SDS011;66104;45.456;11.064;2023-04-12T10:17:02;10.30;;;5.80;;
68744;SDS011;66104;45.456;11.064;2023-04-12T10:19:41;11.80;;;6.20;;
68744;SDS011;66104;45.456;11.064;2023-04-12T10:22:18;10.40;;;6.20;;
68744;SDS011;66104;45.456;11.064;2023-04-12T10:24:56;10.20;;;6.20;;
68744;SDS011;66104;45.456;11.064;2023-04-12T10:27:33;10.40;;;6.50;;
68744;SDS011;66104;45.456;11.064;2023-04-12T10:30:24;11.00;;;6.40;;
68744;SDS011;66104;45.456;11.064;2023-04-12T10:33:14;10.70;;;6.30;;
68744;SDS011;66104;45.456;11.064;2023-04-12T10:35:54;14.40;;;6.40;;
68744;SDS011;66104;45.456;11.064;2023-04-12T10:38:50;9.00;;;6.30;;
68744;SDS011;66104;45.456;11.064;2023-04-12T10:42:18;9.70;;;6.00;;
68744;SDS011;66104;45.456;11.064;2023-04-12T10:48:29;9.90;;;6.40;;
68744;SDS011;66104;45.456;11.064;2023-04-12T10:51:19;10.00;;;6.80;;
68744;SDS011;66104;45.456;11.064;2023-04-12T10:54:31;10.90;;;6.70;;
68744;SDS011;66104;45.456;11.064;2023-04-12T10:57:42;9.60;;;6.20;;
68744;SDS011;66104;45.456;11.064;2023-04-12T11:00:21;10.20;;;6.40;;
68744;SDS011;66104;45.456;11.064;2023-04-12T11:03:21;8.80;;;6.50;;
68744;SDS011;66104;45.456;11.064;2023-04-12T11:06:02;9.80;;;6.60;;
68744;SDS011;66104;45.456;11.064;2023-04-12T11:09:28;10.80;;;6.80;;
68744;SDS011;66104;45.456;11.064;2023-04-12T11:12:16;11.40;;;6.90;;
68744;SDS011;66104;45.456;11.064;2023-04-12T11:15:00;8.80;;;5.90;;
68744;SDS011;66104;45.456;11.064;2023-04-12T11:18:06;12.80;;;7.60;;
68744;SDS011;66104;45.456;11.064;2023-04-12T11:20:43;9.60;;;6.90;;
68744;SDS011;66104;45.456;11.064;2023-04-12T11:23:20;12.40;;;6.90;;
68744;SDS011;66104;45.456;11.064;2023-04-12T11:25:57;10.70;;;7.00;;
68744;SDS011;66104;45.456;11.064;2023-04-12T11:28:36;12.60;;;7.30;;
68744;SDS011;66104;45.456;11.064;2023-04-12T11:31:13;10.60;;;6.00;;
68744;SDS011;66104;45.456;11.064;2023-04-12T11:33:52;11.60;;;7.20;;
68744;SDS011;66104;45.456;11.064;2023-04-12T11:36:32;10.20;;;6.20;;
68744;SDS011;66104;45.456;11.064;2023-04-12T11:39:09;11.70;;;7.30;;
68744;SDS011;66104;45.456;11.064;2023-04-12T11:41:47;9.50;;;5.80;;
68744;SDS011;66104;45.456;11.064;2023-04-12T11:44:23;9.30;;;5.70;;
68744;SDS011;66104;45.456;11.064;2023-04-12T11:47:21;11.10;;;6.80;;
68744;SDS011;66104;45.456;11.064;2023-04-12T11:49:58;9.30;;;6.30;;
68744;SDS011;66104;45.456;11.064;2023-04-12T11:52:34;11.40;;;7.00;;
68744;SDS011;66104;45.456;11.064;2023-04-12T11:55:13;9.40;;;5.80;;
68744;SDS011;66104;45.456;11.064;2023-04-12T11:57:53;10.80;;;6.80;;
68744;SDS011;66104;45.456;11.064;2023-04-12T12:00:31;10.70;;;7.10;;
68744;SDS011;66104;45.456;11.064;2023-04-12T12:03:10;10.00;;;6.80;;
68744;SDS011;66104;45.456;11.064;2023-04-12T12:05:46;12.40;;;7.70;;
68744;SDS011;66104;45.456;11.064;2023-04-12T12:08:25;11.90;;;7.20;;
68744;SDS011;66104;45.456;11.064;2023-04-12T12:11:02;11.20;;;7.60;;
68744;SDS011;66104;45.456;11.064;2023-04-12T12:13:50;13.50;;;8.80;;
68744;SDS011;66104;45.456;11.064;2023-04-12T12:16:28;14.10;;;8.80;;
68744;SDS011;66104;45.456;11.064;2023-04-12T12:19:06;15.60;;;8.60;;
68744;SDS011;66104;45.456;11.064;2023-04-12T12:21:43;12.30;;;8.20;;
68744;SDS011;66104;45.456;11.064;2023-04-12T12:24:20;14.80;;;9.10;;
68744;SDS011;66104;45.456;11.064;2023-04-12T12:27:01;13.80;;;8.90;;
68744;SDS011;66104;45.456;11.064;2023-04-12T12:29:42;11.00;;;8.40;;
68744;SDS011;66104;45.456;11.064;2023-04-12T12:32:21;11.30;;;8.40;;
68744;SDS011;66104;45.456;11.064;2023-04-12T12:34:59;12.20;;;8.60;;
68744;SDS011;66104;45.456;11.064;2023-04-12T12:37:50;12.30;;;8.10;;
68744;SDS011;66104;45.456;11.064;2023-04-12T12:40:32;12.30;;;8.90;;
68744;SDS011;66104;45.456;11.064;2023-04-12T12:43:18;10.60;;;7.70;;
68744;SDS011;66104;45.456;11.064;2023-04-12T12:45:54;11.90;;;7.60;;
68744;SDS011;66104;45.456;11.064;2023-04-12T12:48:31;12.60;;;7.50;;
68744;SDS011;66104;45.456;11.064;2023-04-12T12:51:13;12.10;;;8.10;;
68744;SDS011;66104;45.456;11.064;2023-04-12T12:53:51;14.70;;;9.70;;
68744;SDS011;66104;45.456;11.064;2023-04-12T12:56:28;12.60;;;8.30;;
68744;SDS011;66104;45.456;11.064;2023-04-12T12:59:06;11.70;;;7.90;;
68744;SDS011;66104;45.456;11.064;2023-04-12T13:01:44;11.30;;;7.80;;
68744;SDS011;66104;45.456;11.064;2023-04-12T13:04:20;10.70;;;7.70;;
68744;SDS011;66104;45.456;11.064;2023-04-12T13:06:57;13.80;;;8.70;;
68744;SDS011;66104;45.456;11.064;2023-04-12T13:09:34;11.20;;;7.60;;
68744;SDS011;66104;45.456;11.064;2023-04-12T13:12:15;10.60;;;7.60;;
68744;SDS011;66104;45.456;11.064;2023-04-12T13:14:53;12.10;;;7.70;;
68744;SDS011;66104;45.456;11.064;2023-04-12T13:17:53;11.50;;;7.80;;
68744;SDS011;66104;45.456;11.064;2023-04-12T13:20:29;11.30;;;7.70;;
68744;SDS011;66104;45.456;11.064;2023-04-12T13:23:06;13.00;;;7.90;;
68744;SDS011;66104;45.456;11.064;2023-04-12T13:25:44;12.50;;;8.80;;
68744;SDS011;66104;45.456;11.064;2023-04-12T13:28:20;15.20;;;8.30;;
68744;SDS011;66104;45.456;11.064;2023-04-12T13:30:59;9.30;;;6.40;;
68744;SDS011;66104;45.456;11.064;2023-04-12T13:33:36;9.30;;;6.40;;
68744;SDS011;66104;45.456;11.064;2023-04-12T13:36:13;13.40;;;8.40;;
68744;SDS011;66104;45.456;11.064;2023-04-12T13:38:50;10.20;;;7.30;;
68744;SDS011;66104;45.456;11.064;2023-04-12T13:41:27;17.80;;;8.40;;
68744;SDS011;66104;45.456;11.064;2023-04-12T13:44:05;8.80;;;6.70;;
68744;SDS011;66104;45.456;11.064;2023-04-12T13:46:42;10.40;;;6.90;;
68744;SDS011;66104;45.456;11.064;2023-04-12T13:49:20;13.60;;;7.80;;
68744;SDS011;66104;45.456;11.064;2023-04-12T13:52:00;13.20;;;7.40;;
68744;SDS011;66104;45.456;11.064;2023-04-12T13:54:36;10.90;;;7.00;;
68744;SDS011;66104;45.456;11.064;2023-04-12T13:57:14;14.40;;;8.40;;
68744;SDS011;66104;45.456;11.064;2023-04-12T13:59:50;12.10;;;7.20;;
68744;SDS011;66104;45.456;11.064;2023-04-12T14:02:27;12.40;;;7.70;;
68744;SDS011;66104;45.456;11.064;2023-04-12T14:05:04;13.90;;;7.20;;
68744;SDS011;66104;45.456;11.064;2023-04-12T14:07:44;12.40;;;7.80;;
68744;SDS011;66104;45.456;11.064;2023-04-12T14:10:23;10.90;;;7.00;;
68744;SDS011;66104;45.456;11.064;2023-04-12T14:13:00;10.40;;;6.50;;
68744;SDS011;66104;45.456;11.064;2023-04-12T14:15:37;14.90;;;7.50;;
68744;SDS011;66104;45.456;11.064;2023-04-12T14:18:14;10.00;;;6.60;;
68744;SDS011;66104;45.456;11.064;2023-04-12T14:20:52;13.00;;;7.60;;
68744;SDS011;66104;45.456;11.064;2023-04-12T14:23:29;12.30;;;7.70;;
68744;SDS011;66104;45.456;11.064;2023-04-12T14:26:10;13.60;;;7.90;;
68744;SDS011;66104;45.456;11.064;2023-04-12T14:28:50;14.00;;;8.80;;
68744;SDS011;66104;45.456;11.064;2023-04-12T14:31:28;10.60;;;7.20;;
68744;SDS011;66104;45.456;11.064;2023-04-12T14:34:05;10.40;;;6.80;;
68744;SDS011;66104;45.456;11.064;2023-04-12T14:36:41;14.70;;;7.60;;
68744;SDS011;66104;45.456;11.064;2023-04-12T14:39:19;10.30;;;7.30;;
68744;SDS011;66104;45.456;11.064;2023-04-12T14:41:57;14.80;;;7.70;;
68744;SDS011;66104;45.456;11.064;2023-04-12T14:44:34;11.20;;;7.00;;
68744;SDS011;66104;45.456;11.064;2023-04-12T14:47:11;12.60;;;7.10;;
68744;SDS011;66104;45.456;11.064;2023-04-12T14:49:48;11.60;;;7.00;;
68744;SDS011;66104;45.456;11.064;2023-04-12T14:52:25;11.10;;;7.40;;
68744;SDS011;66104;45.456;11.064;2023-04-12T14:55:02;14.90;;;8.90;;
68744;SDS011;66104;45.456;11.064;2023-04-12T14:57:42;13.40;;;8.40;;
68744;SDS011;66104;45.456;11.064;2023-04-12T15:00:23;11.30;;;7.20;;
68744;SDS011;66104;45.456;11.064;2023-04-12T15:02:59;10.60;;;6.90;;
68744;SDS011;66104;45.456;11.064;2023-04-12T15:05:38;11.90;;;7.60;;
68744;SDS011;66104;45.456;11.064;2023-04-12T15:08:15;12.30;;;7.20;;
68744;SDS011;66104;45.456;11.064;2023-04-12T15:10:54;11.30;;;6.70;;
68744;SDS011;66104;45.456;11.064;2023-04-12T15:13:30;13.40;;;7.20;;
68744;SDS011;66104;45.456;11.064;2023-04-12T15:16:09;12.70;;;7.10;;
68744;SDS011;66104;45.456;11.064;2023-04-12T15:18:47;12.40;;;7.50;;
68744;SDS011;66104;45.456;11.064;2023-04-12T15:21:26;9.20;;;6.00;;
68744;SDS011;66104;45.456;11.064;2023-04-12T15:24:04;11.70;;;6.80;;
68744;SDS011;66104;45.456;11.064;2023-04-12T15:26:41;13.70;;;8.00;;
68744;SDS011;66104;45.456;11.064;2023-04-12T15:29:19;13.70;;;7.50;;
68744;SDS011;66104;45.456;11.064;2023-04-12T15:31:56;14.10;;;6.50;;
68744;SDS011;66104;45.456;11.064;2023-04-12T15:34:32;12.50;;;7.50;;
68744;SDS011;66104;45.456;11.064;2023-04-12T15:37:09;11.60;;;7.60;;